Airfield :
LOGIN :

Register | Disclaimer

   EN    FR    IT 

 










Legend :    VFR   Marginal VFR   IFR   Intensive IFR   Very Intensive IFR
Visi :
Ceiling :
>= 8 km
>= 3000ft
5 to 8 km
1000 to 3000 ft
1500m to 5 km
500 to 1000 ft
800 to 1500m
200 to 500 ft
< 800m
< 200 ft
Symbols :   Thunderstorms  Fog  Heavy snow  Heavy precipitations  Wind > 20 kt
SIGMETs :     Misc.  Thunderstorms  Icing  Turbulence  Mountain Waves  Volcanic Ashes






- Airport Elevation : 796 ft
- IATA code : SYT


LFLN - Saint-Yan

CURRENT METAR :
  • 050200Z AUTO 24004KT 170V300 9999 FEW016 SCT038 BKN047 17/16 Q1012

EXPIRED METARs :
  • 050130Z AUTO 20003KT 170V240 9999 BKN022/// BKN028/// BKN035/// ///CB 16/16 Q1012
  • 050100Z AUTO 19005KT 9999 SCT023/// BKN029/// BKN036/// ///CB 16/16 Q1012
  • 050030Z AUTO 18004KT 9999 OVC021/// ///CB 16/16 Q1013
  • 050000Z AUTO 17005KT 9999 OVC024 16/15 Q1013
  • 042330Z AUTO 18005KT 9999 BKN026 OVC033 16/16 Q1013

TAF AMD TAF LFLN
Valid from the 04 at 21:00 until the 05 at 03:00 UTC


042102Z 0421/0503 VRB03KT 9999 SCT030 BKN080
TEMPO 0421/0503 4000 SHRA BKN014 FEW025CB
PROB40
TEMPO 0421/0423 2000 TSRA
BECMG 0501/0503 25010KT BKN010



MET'MAP, your aeronautical weather chart ! - Copyright ORBIFLY December 2007 - Disclaimer

ORBIFLY MET'MAP TEAM :

Programming & Development : Alexandra Zaïnal
Concept & original design : Baudouin d'Aumeries
Assistance for programming : Marc-Olivier Méhu
Technical & hardware support : Manuel Goepfert

Contact : metmap@orbifly.com




SOURCES & CREDITS :

   NOAA